Terminal Aerodrome Forecast
Issued by NWS

Home | Current Version | Previous Version | Text Only | Print | Product List | Glossary On
Versions: 1 2 3 4 5 6 7 8 9 10 11 12 13 14 15 16 17 18 19 20
762
FTUS45 KTFX 251734
TAFCTB
TAF
KCTB 251734Z 2518/2618 13008KT 2SM BR BKN002 OVC015
     FM260200 13008KT P6SM -SHRA OVC015
     FM260400 12007KT P6SM VCSH BKN020 OVC025
     FM260600 04007KT P6SM VCSH SCT020 OVC030
     FM261300 VRB05KT P6SM BKN015 PROB30 2613/2615 2SM -SHRASN
      OVC007
     FM261700 19007KT P6SM BKN040 PROB30 2617/2618 4SM -SHRASN
      OVC025=

USA.gov is the U.S. government's official web portal to all federal, state and local government web resources and services.